HST,Max TemperatureF,Mean TemperatureF,Min TemperatureF,Max Dew PointF,MeanDew PointF,Min DewpointF,Max Humidity, Mean Humidity, Min Humidity, Max Sea Level PressureIn, Mean Sea Level PressureIn, Min Sea Level PressureIn, Max VisibilityMiles, Mean VisibilityMiles, Min VisibilityMiles, Max Wind SpeedMPH, Mean Wind SpeedMPH, Max Gust SpeedMPH,PrecipitationIn, CloudCover, Events, WindDirDegrees
2011-9-1,84,80,75,70,67,62,76,65,58,30.07,30.03,30.00,10,10,10,12,5,,0.00,2,,165
2011-9-2,84,78,73,70,65,57,71,62,47,30.06,30.03,29.99,10,10,10,15,6,21,0.00,1,,148
2011-9-3,82,78,73,68,64,58,76,61,52,30.03,30.00,29.96,10,10,6,14,6,21,0.06,4,Rain,129
2011-9-4,84,78,71,70,66,60,78,65,49,30.04,29.99,29.95,10,10,10,15,8,,0.01,2,,171
2011-9-5,84,80,75,69,66,64,82,64,54,30.03,30.00,29.95,10,10,10,14,8,,0.00,5,,208
2011-9-6,82,78,75,69,67,64,74,66,56,30.03,29.99,29.94,10,10,10,10,7,,0.00,6,,185
2011-9-7,84,78,72,68,66,62,76,64,55,30.00,29.96,29.91,10,10,10,12,7,,0.00,2,,179
2011-9-8,84,78,73,70,66,60,78,67,58,30.05,30.00,29.95,10,10,10,14,7,,0.00,5,,132
2011-9-9,84,78,73,70,66,62,79,66,56,30.06,30.02,29.97,10,10,10,14,5,,0.07,4,Rain,230
2011-9-10,84,78,73,72,68,65,79,68,51,30.01,29.97,29.91,10,10,10,15,6,,0.04,5,Rain,188
2011-9-11,84,78,72,68,65,60,74,62,52,29.99,29.95,29.89,10,10,10,17,8,,0.00,2,,4
2011-9-12,84,78,73,69,65,61,76,62,54,30.03,29.98,29.94,10,10,10,14,8,,0.14,4,,161
2011-9-13,84,78,73,70,66,61,71,64,54,30.09,30.04,29.99,10,10,10,13,6,,0.00,0,,208
2011-9-14,84,80,75,70,67,63,76,65,54,30.10,30.06,30.02,10,10,10,13,6,,0.00,2,,180
2011-9-15,84,80,75,71,69,64,74,67,59,30.11,30.07,30.03,10,10,10,13,6,,0.00,1,,160
2011-9-16,88,82,75,72,65,61,74,59,42,30.08,30.05,30.00,10,10,10,14,9,24,0.00,1,,39
2011-9-17,84,80,75,68,64,60,65,58,52,30.07,30.04,29.99,10,10,10,13,9,,0.00,3,,88
2011-9-18,84,78,73,70,66,61,76,64,56,30.05,30.01,29.96,10,10,10,10,5,,0.00,2,,180
2011-9-19,84,78,73,68,65,61,68,60,53,30.02,29.99,29.94,10,10,10,10,5,,0.00,4,,254
2011-9-20,86,80,75,69,65,62,67,60,53,30.02,29.99,29.95,10,10,10,14,7,,0.00,3,,126
2011-9-21,84,78,73,67,64,60,69,61,52,30.01,29.98,29.93,10,10,10,10,7,,0.00,2,,142
2011-9-22,82,78,75,68,65,61,71,64,54,30.02,29.98,29.95,10,10,10,12,7,,0.00,2,,151
2011-9-23,84,80,75,69,66,62,74,64,55,30.06,30.02,29.97,10,10,10,15,8,,0.00,5,,169
2011-9-24,84,78,72,68,65,61,76,63,49,30.06,30.01,29.96,10,10,10,14,7,18,0.00,3,,160
2011-9-25,82,78,73,65,62,58,66,57,47,30.02,29.98,29.94,10,10,10,9,5,,0.00,4,Rain,219
2011-9-26,84,78,71,65,60,56,61,53,42,30.03,29.98,29.94,10,10,10,12,5,,0.00,2,,132
2011-9-27,84,80,75,68,65,62,69,60,51,30.06,30.00,29.95,10,10,10,13,6,,0.00,2,,327
2011-9-28,86,82,77,72,67,63,74,64,55,30.06,30.02,29.99,10,10,10,13,7,,0.00,2,,166
2011-9-29,86,80,75,68,66,64,71,61,48,30.02,29.98,29.94,10,10,10,12,7,,0.00,1,,159
2011-9-30,86,80,73,70,67,61,74,65,57,30.01,29.98,29.93,10,10,10,15,7,,0.00,2,Rain,124